createdAt,value
2018-02-16T00:02:12.591Z,-2.00
2018-02-16T00:04:39.020Z,-2.00
2018-02-16T00:07:05.485Z,-2.00
2018-02-16T00:09:31.896Z,-1.90
2018-02-16T00:11:58.385Z,-1.90
2018-02-16T00:14:24.926Z,-2.00
2018-02-16T00:16:51.315Z,-1.90
2018-02-16T00:19:17.889Z,-1.90
2018-02-16T00:21:44.311Z,-1.80
2018-02-16T00:24:10.848Z,-1.90
2018-02-16T00:26:37.262Z,-1.80
2018-02-16T00:29:03.704Z,-1.90
2018-02-16T00:31:30.135Z,-1.80
2018-02-16T00:33:56.603Z,-1.80
2018-02-16T00:36:22.954Z,-1.90
2018-02-16T00:38:49.348Z,-1.70
2018-02-16T00:41:15.958Z,-1.80
2018-02-16T00:43:42.332Z,-1.80
2018-02-16T00:46:08.777Z,-1.80
2018-02-16T00:48:35.222Z,-1.80
2018-02-16T00:51:01.683Z,-1.80
2018-02-16T00:53:28.055Z,-1.90
2018-02-16T00:55:54.571Z,-2.00
2018-02-16T00:58:21.100Z,-1.90
2018-02-16T01:00:47.549Z,-2.00
2018-02-16T01:03:14.021Z,-2.00
2018-02-16T01:05:40.385Z,-2.10
2018-02-16T01:08:06.800Z,-2.10
2018-02-16T01:10:33.242Z,-2.10
2018-02-16T01:12:59.761Z,-2.10
2018-02-16T01:15:26.128Z,-2.20
2018-02-16T01:17:52.582Z,-2.20
2018-02-16T01:20:18.972Z,-2.30
2018-02-16T01:22:45.443Z,-2.40
2018-02-16T01:25:11.881Z,-2.50
2018-02-16T01:27:38.264Z,-2.40
2018-02-16T01:30:04.603Z,-2.30
2018-02-16T01:32:31.208Z,-2.40
2018-02-16T01:34:57.595Z,-2.40
2018-02-16T01:37:23.949Z,-2.30
2018-02-16T01:39:50.399Z,-2.30
2018-02-16T01:42:16.755Z,-2.30
2018-02-16T01:44:43.126Z,-2.20
2018-02-16T01:47:09.531Z,-2.30
2018-02-16T01:49:47.971Z,-2.30
2018-02-16T01:52:14.465Z,-2.30
2018-02-16T01:54:40.867Z,-2.30
2018-02-16T01:57:07.230Z,-2.20
2018-02-16T01:59:33.675Z,-2.30
2018-02-16T02:02:00.182Z,-2.30
2018-02-16T02:04:26.614Z,-2.30
2018-02-16T02:06:53.023Z,-2.30
2018-02-16T02:09:19.369Z,-2.40
2018-02-16T02:11:46.759Z,-2.50
2018-02-16T02:14:13.211Z,-2.40
2018-02-16T02:16:39.583Z,-2.40
2018-02-16T02:19:05.958Z,-2.30
2018-02-16T02:21:32.469Z,-2.40
2018-02-16T02:23:58.871Z,-2.60
2018-02-16T02:26:25.240Z,-2.60
2018-02-16T02:28:51.651Z,-2.70
2018-02-16T02:31:18.143Z,-2.50
2018-02-16T02:33:44.508Z,-2.60
2018-02-16T02:36:10.947Z,-2.70
2018-02-16T02:38:37.351Z,-2.70
2018-02-16T02:41:03.860Z,-2.80
2018-02-16T02:43:30.255Z,-2.80
2018-02-16T02:45:56.657Z,-2.90
2018-02-16T02:48:23.032Z,-2.90
2018-02-16T02:50:49.502Z,-2.90
2018-02-16T02:53:15.879Z,-3.00
2018-02-16T02:55:42.301Z,-3.00
2018-02-16T02:58:08.788Z,-3.10
2018-02-16T03:00:35.144Z,-2.90
2018-02-16T03:03:01.564Z,-3.00
2018-02-16T03:05:28.074Z,-3.20
2018-02-16T03:07:54.446Z,-3.30
2018-02-16T03:10:20.805Z,-3.30
2018-02-16T03:12:47.204Z,-3.30
2018-02-16T03:15:13.576Z,-3.20
2018-02-16T03:17:39.968Z,-3.30
2018-02-16T03:20:06.433Z,-3.20
2018-02-16T03:22:32.835Z,-3.20
2018-02-16T03:24:59.180Z,-3.20
2018-02-16T03:27:25.563Z,-3.30
2018-02-16T03:29:52.060Z,-3.30
2018-02-16T03:32:19.479Z,-3.40
2018-02-16T03:34:45.855Z,-3.40
2018-02-16T03:37:12.212Z,-3.40
2018-02-16T03:39:38.629Z,-3.40
2018-02-16T03:42:05.171Z,-3.40
2018-02-16T03:44:31.511Z,-3.50
2018-02-16T03:46:57.888Z,-3.40
2018-02-16T03:49:24.284Z,-3.40
2018-02-16T03:51:50.765Z,-3.50
2018-02-16T03:54:17.116Z,-3.60
2018-02-16T03:56:43.702Z,-3.50
2018-02-16T03:59:10.103Z,-3.40
2018-02-16T04:01:36.592Z,-3.40
2018-02-16T04:04:02.968Z,-3.40
2018-02-16T04:06:29.389Z,-3.20
2018-02-16T04:08:55.892Z,-3.20
2018-02-16T04:11:22.387Z,-3.10
2018-02-16T04:13:48.743Z,-2.90
2018-02-16T04:16:15.118Z,-2.80
2018-02-16T04:18:41.544Z,-2.70
2018-02-16T04:21:07.993Z,-2.70
2018-02-16T04:23:34.391Z,-2.60
2018-02-16T04:26:00.923Z,-2.40
2018-02-16T04:28:27.342Z,-2.40
2018-02-16T04:30:53.724Z,-2.30
2018-02-16T04:33:20.213Z,-2.30
2018-02-16T04:35:46.649Z,-2.10
2018-02-16T04:38:13.015Z,-2.10
2018-02-16T04:40:39.528Z,-1.90
2018-02-16T04:43:06.034Z,-1.90
2018-02-16T04:45:32.497Z,-1.90
2018-02-16T04:47:59.016Z,-2.00
2018-02-16T04:50:25.444Z,-2.00
2018-02-16T04:52:52.203Z,-1.90
2018-02-16T04:55:18.669Z,-2.00
2018-02-16T04:57:45.040Z,-2.00
2018-02-16T05:00:11.460Z,-2.00
2018-02-16T05:02:38.105Z,-2.00
2018-02-16T05:05:04.547Z,-2.00
2018-02-16T05:07:31.222Z,-2.00
2018-02-16T05:09:57.635Z,-2.00
2018-02-16T05:12:24.216Z,-1.90
2018-02-16T05:14:50.675Z,-2.00
2018-02-16T05:17:17.156Z,-1.90
2018-02-16T05:19:43.513Z,-1.90
2018-02-16T05:22:10.664Z,-1.90
2018-02-16T05:24:38.064Z,-1.90
2018-02-16T05:27:04.426Z,-1.90
2018-02-16T05:29:30.842Z,-1.80
2018-02-16T05:31:57.465Z,-1.80
2018-02-16T05:34:23.874Z,-1.80
2018-02-16T05:36:50.249Z,-1.70
2018-02-16T05:39:16.736Z,-1.70
2018-02-16T05:41:43.248Z,-1.70
2018-02-16T05:44:09.706Z,-1.60
2018-02-16T05:46:36.212Z,-1.60
2018-02-16T05:49:02.622Z,-1.50
2018-02-16T05:51:29.141Z,-1.60
2018-02-16T05:53:55.725Z,-1.40
2018-02-16T05:56:22.163Z,-1.30
2018-02-16T05:58:48.563Z,-1.20
2018-02-16T06:01:15.099Z,-1.20
2018-02-16T06:03:41.474Z,-1.10
2018-02-16T06:06:07.853Z,-1.10
2018-02-16T06:08:34.315Z,-0.80
2018-02-16T06:11:00.786Z,-0.90
2018-02-16T06:13:27.273Z,-0.80
2018-02-16T06:15:53.744Z,-0.70
2018-02-16T06:18:20.279Z,-0.70
2018-02-16T06:20:46.654Z,-0.40
2018-02-16T06:23:13.173Z,-0.40
2018-02-16T06:25:39.610Z,0.00
2018-02-16T06:28:06.033Z,0.30
2018-02-16T06:30:32.455Z,0.20
2018-02-16T06:32:58.974Z,-0.30
2018-02-16T06:35:25.708Z,-0.30
2018-02-16T06:37:52.325Z,-0.30
2018-02-16T06:40:18.722Z,-0.30
2018-02-16T06:42:45.193Z,0.00
2018-02-16T06:45:11.635Z,0.40
2018-02-16T06:47:38.150Z,0.80
2018-02-16T06:50:04.676Z,0.90
2018-02-16T06:52:31.330Z,0.60
2018-02-16T06:54:57.792Z,0.90
2018-02-16T06:57:24.190Z,1.00
2018-02-16T06:59:50.599Z,0.90
2018-02-16T07:02:17.075Z,0.90
2018-02-16T07:04:43.564Z,0.60
2018-02-16T07:07:10.033Z,1.10
2018-02-16T07:09:36.499Z,0.90
2018-02-16T07:12:02.952Z,0.80
2018-02-16T07:14:29.439Z,1.20
2018-02-16T07:16:55.911Z,1.00
2018-02-16T07:19:22.430Z,1.60
2018-02-16T07:21:48.904Z,1.70
2018-02-16T07:24:15.351Z,1.60
2018-02-16T07:26:41.726Z,1.70
2018-02-16T07:29:08.146Z,1.90
2018-02-16T07:31:34.764Z,2.00
2018-02-16T07:34:01.230Z,1.90
2018-02-16T07:36:27.667Z,1.80
2018-02-16T07:38:54.061Z,2.20
2018-02-16T07:41:20.548Z,2.30
2018-02-16T07:43:47.217Z,2.20
2018-02-16T07:46:13.700Z,2.20
2018-02-16T07:48:40.211Z,2.10
2018-02-16T07:51:06.828Z,2.30
2018-02-16T07:53:33.327Z,2.20
2018-02-16T07:55:59.730Z,2.80
2018-02-16T07:58:26.194Z,2.40
2018-02-16T08:00:52.677Z,2.90
2018-02-16T08:03:19.108Z,2.80
2018-02-16T08:05:45.577Z,3.20
2018-02-16T08:08:12.843Z,3.10
2018-02-16T08:10:39.216Z,3.40
2018-02-16T08:13:05.833Z,3.30
2018-02-16T08:15:32.429Z,3.10
2018-02-16T08:17:58.888Z,3.20
2018-02-16T08:20:25.517Z,3.30
2018-02-16T08:22:51.964Z,3.30
2018-02-16T08:25:18.356Z,3.10
2018-02-16T08:27:44.806Z,3.20
2018-02-16T08:30:11.366Z,3.50
2018-02-16T08:32:37.940Z,3.40
2018-02-16T08:35:04.384Z,3.40
2018-02-16T08:37:30.846Z,3.60
2018-02-16T08:39:57.245Z,3.90
2018-02-16T08:42:23.705Z,4.20
2018-02-16T08:44:50.099Z,3.50
2018-02-16T08:47:16.482Z,3.70
2018-02-16T08:49:42.952Z,3.80
2018-02-16T08:52:09.488Z,3.70
2018-02-16T08:54:35.860Z,3.60
2018-02-16T08:57:02.294Z,4.00
2018-02-16T08:59:28.665Z,4.10
2018-02-16T09:01:55.353Z,3.70
2018-02-16T09:04:21.910Z,3.70
2018-02-16T09:06:48.446Z,3.90
2018-02-16T09:09:14.837Z,4.40
2018-02-16T09:11:41.350Z,4.20
2018-02-16T09:14:07.734Z,3.90
2018-02-16T09:16:34.121Z,4.50
2018-02-16T09:19:00.592Z,4.50
2018-02-16T09:21:27.021Z,4.40
2018-02-16T09:23:53.399Z,4.50
2018-02-16T09:26:19.857Z,4.30
2018-02-16T09:28:46.393Z,4.80
2018-02-16T09:31:12.774Z,4.50
2018-02-16T09:33:39.245Z,4.70
2018-02-16T09:36:06.604Z,4.80
2018-02-16T09:38:33.042Z,4.60
2018-02-16T09:40:59.496Z,4.70
2018-02-16T09:43:25.984Z,4.40
2018-02-16T09:45:52.408Z,4.80
2018-02-16T09:48:18.881Z,4.40
2018-02-16T09:50:45.261Z,4.60
2018-02-16T09:53:11.687Z,4.70
2018-02-16T09:55:38.144Z,4.70
2018-02-16T09:58:04.673Z,5.00
2018-02-16T10:00:31.090Z,5.40
2018-02-16T10:02:57.578Z,5.30
2018-02-16T10:05:24.289Z,5.20
2018-02-16T10:07:51.118Z,5.00
2018-02-16T10:10:17.866Z,5.10
2018-02-16T10:12:48.144Z,4.90
2018-02-16T10:15:14.638Z,4.70
2018-02-16T10:17:41.220Z,5.10
2018-02-16T10:20:08.827Z,6.00
2018-02-16T10:22:36.863Z,5.90
2018-02-16T10:25:03.369Z,5.90
2018-02-16T10:27:29.768Z,6.10
2018-02-16T10:29:56.219Z,5.90
2018-02-16T10:32:22.755Z,5.80
2018-02-16T10:34:49.121Z,6.00
2018-02-16T10:37:15.538Z,5.50
2018-02-16T10:39:42.187Z,5.40
2018-02-16T10:42:09.785Z,5.30
2018-02-16T10:44:36.264Z,5.70
2018-02-16T10:47:02.733Z,5.70
2018-02-16T10:49:29.163Z,5.70
2018-02-16T10:51:55.685Z,5.60
2018-02-16T10:54:22.277Z,5.60
2018-02-16T10:56:48.817Z,5.50
2018-02-16T10:59:15.249Z,5.90
2018-02-16T11:01:43.837Z,6.00
2018-02-16T11:04:16.287Z,6.20
2018-02-16T11:06:48.614Z,6.50
2018-02-16T11:09:20.026Z,6.60
2018-02-16T11:11:46.584Z,6.60
2018-02-16T11:14:13.021Z,6.90
2018-02-16T11:16:39.461Z,7.10
2018-02-16T11:19:05.931Z,6.90
2018-02-16T11:21:33.119Z,7.00
2018-02-16T11:23:59.802Z,6.70
2018-02-16T11:26:26.206Z,6.40
2018-02-16T11:28:53.462Z,6.20
2018-02-16T11:31:20.400Z,6.10
2018-02-16T11:33:46.919Z,6.30
2018-02-16T11:36:13.474Z,6.30
2018-02-16T11:38:39.941Z,6.40
2018-02-16T11:41:06.374Z,6.90
2018-02-16T11:43:32.860Z,7.00
2018-02-16T11:45:59.404Z,6.70
2018-02-16T11:48:26.008Z,6.60
2018-02-16T11:50:53.011Z,6.90
2018-02-16T11:53:19.656Z,7.10
2018-02-16T11:55:46.055Z,7.10
2018-02-16T11:58:12.492Z,7.10
2018-02-16T12:00:38.942Z,7.10
2018-02-16T12:03:05.504Z,7.60
2018-02-16T12:05:31.947Z,7.70
2018-02-16T12:07:58.374Z,7.50
2018-02-16T12:10:24.855Z,7.60
2018-02-16T12:12:51.466Z,7.30
2018-02-16T12:15:17.861Z,7.40
2018-02-16T12:17:44.421Z,7.30
2018-02-16T12:20:10.871Z,7.20
2018-02-16T12:22:37.457Z,7.40
2018-02-16T12:25:03.953Z,7.20
2018-02-16T12:27:30.489Z,7.20
2018-02-16T12:29:56.863Z,7.20
2018-02-16T12:32:23.478Z,7.30
2018-02-16T12:34:49.967Z,7.50
2018-02-16T12:37:16.334Z,7.60
2018-02-16T12:39:42.799Z,7.80
2018-02-16T12:42:10.614Z,7.60
2018-02-16T12:44:37.004Z,7.50
2018-02-16T12:47:03.391Z,7.60
2018-02-16T12:49:30.038Z,7.60
2018-02-16T12:51:56.460Z,7.80
2018-02-16T12:54:22.908Z,7.90
2018-02-16T12:56:49.345Z,7.90
2018-02-16T12:59:15.727Z,7.80
2018-02-16T13:01:42.135Z,7.90
2018-02-16T13:04:08.528Z,8.00
2018-02-16T13:06:34.886Z,8.30
2018-02-16T13:09:01.251Z,8.20
2018-02-16T13:11:27.701Z,8.30
2018-02-16T13:13:54.249Z,8.30
2018-02-16T13:16:20.669Z,7.90
2018-02-16T13:18:47.084Z,7.70
2018-02-16T13:21:13.446Z,8.00
2018-02-16T13:23:39.974Z,7.90
2018-02-16T13:26:06.378Z,7.70
2018-02-16T13:28:32.838Z,8.00
2018-02-16T13:30:59.260Z,8.00
2018-02-16T13:33:25.778Z,8.20
2018-02-16T13:35:52.157Z,8.10
2018-02-16T13:38:18.602Z,8.00
2018-02-16T13:40:45.056Z,8.00
2018-02-16T13:43:11.434Z,8.00
2018-02-16T13:45:37.883Z,7.90
2018-02-16T13:48:05.249Z,8.00
2018-02-16T13:50:31.665Z,8.00
2018-02-16T13:52:58.165Z,7.90
2018-02-16T13:55:24.541Z,7.90
2018-02-16T13:57:51.043Z,7.90
2018-02-16T14:00:17.495Z,7.90
2018-02-16T14:02:43.978Z,7.70
2018-02-16T14:05:10.378Z,7.60
2018-02-16T14:07:36.901Z,7.60
2018-02-16T14:10:03.451Z,7.50
2018-02-16T14:12:30.153Z,7.60
2018-02-16T14:14:58.032Z,7.50
2018-02-16T14:17:25.189Z,7.40
2018-02-16T14:19:53.161Z,7.50
2018-02-16T14:22:20.538Z,7.40
2018-02-16T14:24:47.232Z,7.30
2018-02-16T14:27:13.881Z,7.10
2018-02-16T14:29:40.683Z,6.90
2018-02-16T14:32:09.661Z,6.70
2018-02-16T14:34:38.689Z,6.50
2018-02-16T14:37:06.834Z,6.40
2018-02-16T14:39:34.605Z,6.40
2018-02-16T14:42:03.486Z,6.20
2018-02-16T14:44:31.854Z,6.00
2018-02-16T14:47:00.921Z,5.90
2018-02-16T14:49:27.531Z,5.80
2018-02-16T14:51:55.985Z,5.70
2018-02-16T14:54:24.895Z,5.60
2018-02-16T14:56:53.237Z,5.40
2018-02-16T14:59:20.348Z,5.20
2018-02-16T15:01:48.293Z,5.10
2018-02-16T15:04:15.748Z,5.00
2018-02-16T15:06:43.407Z,4.80
2018-02-16T15:09:13.182Z,4.50
2018-02-16T15:11:40.823Z,4.40
2018-02-16T15:14:08.092Z,4.20
2018-02-16T15:16:34.941Z,4.10
2018-02-16T15:19:02.621Z,4.00
2018-02-16T15:21:32.241Z,4.00
2018-02-16T15:23:59.020Z,3.90
2018-02-16T15:26:25.978Z,3.90
2018-02-16T15:28:52.524Z,3.80
2018-02-16T15:31:19.418Z,3.80
2018-02-16T15:33:46.241Z,3.60
2018-02-16T15:36:13.247Z,3.30
2018-02-16T15:38:39.881Z,3.30
2018-02-16T15:41:06.901Z,3.30
2018-02-16T15:43:36.189Z,3.20
2018-02-16T15:46:03.255Z,3.20
2018-02-16T15:48:30.093Z,3.10
2018-02-16T15:50:56.741Z,2.90
2018-02-16T15:53:23.340Z,2.80
2018-02-16T15:55:49.995Z,2.80
2018-02-16T15:58:16.618Z,2.70
2018-02-16T16:00:43.158Z,2.60
2018-02-16T16:03:09.780Z,2.40
2018-02-16T16:05:36.628Z,2.40
2018-02-16T16:08:03.935Z,2.40
2018-02-16T16:10:31.449Z,2.40
2018-02-16T16:12:58.771Z,2.40
2018-02-16T16:15:27.377Z,2.40
2018-02-16T16:17:54.446Z,2.30
2018-02-16T16:20:22.330Z,2.20
2018-02-16T16:22:50.428Z,2.20
2018-02-16T16:25:17.330Z,2.10
2018-02-16T16:27:45.140Z,2.10
2018-02-16T16:30:12.488Z,2.00
2018-02-16T16:32:39.526Z,2.10
2018-02-16T16:35:06.602Z,2.00
2018-02-16T16:37:33.409Z,1.90
2018-02-16T16:40:01.109Z,1.80
2018-02-16T16:42:29.527Z,1.70
2018-02-16T16:44:56.344Z,1.60
2018-02-16T16:47:24.157Z,1.60
2018-02-16T16:49:50.842Z,1.60
2018-02-16T16:52:18.492Z,1.60
2018-02-16T16:54:45.381Z,1.60
2018-02-16T16:57:11.938Z,1.60
2018-02-16T16:59:38.379Z,1.50
2018-02-16T17:02:05.425Z,1.50
2018-02-16T17:04:32.332Z,1.50
2018-02-16T17:06:59.848Z,1.40
2018-02-16T17:09:26.744Z,1.60
2018-02-16T17:11:53.560Z,1.60
2018-02-16T17:14:20.167Z,1.70
2018-02-16T17:16:46.654Z,1.60
2018-02-16T17:19:13.106Z,1.50
2018-02-16T17:21:39.699Z,1.50
2018-02-16T17:24:07.394Z,1.50
2018-02-16T17:26:34.388Z,1.40
2018-02-16T17:29:01.023Z,1.40
2018-02-16T17:31:27.748Z,1.30
2018-02-16T17:33:54.691Z,1.30
2018-02-16T17:36:21.230Z,1.40
2018-02-16T17:38:48.383Z,1.30
2018-02-16T17:41:15.320Z,1.20
2018-02-16T17:43:41.944Z,1.20
2018-02-16T17:46:08.571Z,1.20
2018-02-16T17:48:35.368Z,1.10
2018-02-16T17:51:01.959Z,1.10
2018-02-16T17:53:31.279Z,1.20
2018-02-16T17:55:58.124Z,1.20
2018-02-16T17:58:24.859Z,1.20
2018-02-16T18:00:52.518Z,1.10
2018-02-16T18:03:23.024Z,1.00
2018-02-16T18:05:49.695Z,0.90
2018-02-16T18:08:16.503Z,0.90
2018-02-16T18:10:44.790Z,0.80
2018-02-16T18:13:13.230Z,0.90
2018-02-16T18:15:39.990Z,1.00
2018-02-16T18:18:07.075Z,1.00
2018-02-16T18:20:33.787Z,0.90
2018-02-16T18:23:01.945Z,0.90
2018-02-16T18:25:28.922Z,0.90
2018-02-16T18:27:55.604Z,0.90
2018-02-16T18:30:22.678Z,0.90
2018-02-16T18:32:49.590Z,0.80
2018-02-16T18:35:16.464Z,0.80
2018-02-16T18:37:43.410Z,0.70
2018-02-16T18:40:10.124Z,0.70
2018-02-16T18:42:37.014Z,0.70
2018-02-16T18:45:03.839Z,0.80
2018-02-16T18:47:30.563Z,0.80
2018-02-16T18:49:57.353Z,0.80
2018-02-16T18:52:26.241Z,0.70
2018-02-16T18:54:52.995Z,0.60
2018-02-16T18:57:19.979Z,0.50
2018-02-16T18:59:46.732Z,0.50
2018-02-16T19:02:13.764Z,0.50
2018-02-16T19:04:40.623Z,0.50
2018-02-16T19:07:08.098Z,0.50
2018-02-16T19:09:34.989Z,0.60
2018-02-16T19:12:01.889Z,0.60
2018-02-16T19:14:28.629Z,0.60
2018-02-16T19:16:55.684Z,0.50
2018-02-16T19:19:23.028Z,0.50
2018-02-16T19:21:49.847Z,0.40
2018-02-16T19:24:22.036Z,0.40
2018-02-16T19:26:48.663Z,0.40
2018-02-16T19:29:15.656Z,0.30
2018-02-16T19:31:42.930Z,0.30
2018-02-16T19:34:16.036Z,0.30
2018-02-16T19:36:43.004Z,0.20
2018-02-16T19:39:10.510Z,0.20
2018-02-16T19:41:37.647Z,0.20
2018-02-16T19:44:04.258Z,0.20
2018-02-16T19:46:30.901Z,0.10
2018-02-16T19:48:57.638Z,0.20
2018-02-16T19:51:24.478Z,0.20
2018-02-16T19:53:52.210Z,0.30
2018-02-16T19:56:19.003Z,0.30
2018-02-16T19:58:46.122Z,0.30
2018-02-16T20:01:12.957Z,0.30
2018-02-16T20:03:39.653Z,0.30
2018-02-16T20:06:06.389Z,0.40
2018-02-16T20:08:33.292Z,0.40
2018-02-16T20:11:00.029Z,0.30
2018-02-16T20:13:27.170Z,0.30
2018-02-16T20:15:54.266Z,0.40
2018-02-16T20:18:21.280Z,0.50
2018-02-16T20:20:48.076Z,0.30
2018-02-16T20:23:16.007Z,0.20
2018-02-16T20:25:42.599Z,0.10
2018-02-16T20:28:09.484Z,0.00
2018-02-16T20:30:35.983Z,0.00
2018-02-16T20:33:04.534Z,0.00
2018-02-16T20:35:31.096Z,-0.10
2018-02-16T20:37:57.700Z,-0.10
2018-02-16T20:40:24.325Z,-0.10
2018-02-16T20:42:51.953Z,0.00
2018-02-16T20:45:18.701Z,-0.10
2018-02-16T20:47:45.508Z,-0.10
2018-02-16T20:50:12.112Z,-0.10
2018-02-16T20:52:40.775Z,-0.10
2018-02-16T20:55:07.348Z,-0.10
2018-02-16T20:57:34.634Z,-0.10
2018-02-16T21:00:01.423Z,-0.10
2018-02-16T21:02:29.212Z,-0.20
2018-02-16T21:04:55.868Z,-0.20
2018-02-16T21:07:22.318Z,-0.30
2018-02-16T21:09:48.854Z,-0.30
2018-02-16T21:12:15.531Z,-0.40
2018-02-16T21:14:43.022Z,-0.30
2018-02-16T21:17:09.519Z,-0.30
2018-02-16T21:19:36.011Z,-0.40
2018-02-16T21:22:02.491Z,-0.40
2018-02-16T21:24:29.949Z,-0.40
2018-02-16T21:26:56.403Z,-0.30
2018-02-16T21:29:22.851Z,-0.30
2018-02-16T21:31:49.265Z,-0.30
2018-02-16T21:34:17.005Z,-0.30
2018-02-16T21:36:43.490Z,-0.40
2018-02-16T21:39:10.394Z,-0.40
2018-02-16T21:41:36.847Z,-0.50
2018-02-16T21:44:03.349Z,-0.40
2018-02-16T21:46:29.789Z,-0.40
2018-02-16T21:48:56.411Z,-0.50
2018-02-16T21:51:22.941Z,-0.50
2018-02-16T21:53:49.686Z,-0.50
2018-02-16T21:56:16.247Z,-0.40
2018-02-16T21:58:42.661Z,-0.40
2018-02-16T22:01:09.078Z,-0.40
2018-02-16T22:03:35.586Z,-0.30
2018-02-16T22:06:02.015Z,-0.30
2018-02-16T22:08:28.440Z,-0.30
2018-02-16T22:10:54.911Z,-0.20
2018-02-16T22:13:38.367Z,-0.40
2018-02-16T22:16:04.832Z,-0.30
2018-02-16T22:18:31.299Z,-0.30
2018-02-16T22:20:58.262Z,-0.40
2018-02-16T22:23:25.891Z,-0.40
2018-02-16T22:25:52.309Z,-0.60
2018-02-16T22:28:18.779Z,-0.60
2018-02-16T22:30:45.271Z,-0.70
2018-02-16T22:33:17.642Z,-0.70
2018-02-16T22:35:44.174Z,-0.60
2018-02-16T22:38:10.635Z,-0.60
2018-02-16T22:40:37.017Z,-0.50
2018-02-16T22:43:03.488Z,-0.50
2018-02-16T22:45:29.984Z,-0.60
2018-02-16T22:47:56.617Z,-0.50
2018-02-16T22:50:23.058Z,-0.60
2018-02-16T22:52:52.678Z,-0.60
2018-02-16T22:55:19.134Z,-0.50
2018-02-16T22:57:45.552Z,-0.60
2018-02-16T23:00:12.043Z,-0.60
2018-02-16T23:02:38.533Z,-0.60
2018-02-16T23:05:05.043Z,-0.40
2018-02-16T23:07:31.466Z,-0.30
2018-02-16T23:09:57.835Z,-0.40
2018-02-16T23:12:24.259Z,-0.60
2018-02-16T23:14:51.777Z,-0.70
2018-02-16T23:17:18.168Z,-0.70
2018-02-16T23:19:44.694Z,-0.70
2018-02-16T23:22:11.104Z,-0.70
2018-02-16T23:24:37.522Z,-0.70
2018-02-16T23:27:04.036Z,-0.60
2018-02-16T23:29:30.516Z,-0.70
2018-02-16T23:31:56.945Z,-0.60
2018-02-16T23:34:23.474Z,-0.60
2018-02-16T23:36:50.569Z,-0.60
2018-02-16T23:39:17.148Z,-0.60
2018-02-16T23:41:43.579Z,-0.60
2018-02-16T23:44:09.956Z,-0.60
2018-02-16T23:46:36.406Z,-0.60
2018-02-16T23:49:02.866Z,-0.50
2018-02-16T23:51:29.249Z,-0.60
2018-02-16T23:54:03.210Z,-0.30
2018-02-16T23:56:29.655Z,-0.50
2018-02-16T23:58:56.115Z,-0.80
